createdAt,value
2022-11-23T00:06:26.308Z,80.80
2022-11-23T00:16:30.651Z,82.10
2022-11-23T00:26:33.725Z,72.60
2022-11-23T00:36:36.784Z,76.10
2022-11-23T00:46:39.866Z,80.90
2022-11-23T00:56:43.022Z,86.30
2022-11-23T01:06:46.189Z,80.70
2022-11-23T01:16:52.341Z,76.20
2022-11-23T01:26:56.133Z,73.10
2022-11-23T01:36:59.463Z,74.50
2022-11-23T01:47:06.881Z,61.40
2022-11-23T01:57:17.895Z,73.20
2022-11-23T02:07:24.258Z,68.50
2022-11-23T02:17:27.425Z,60.20
2022-11-23T02:27:30.753Z,64.00
2022-11-23T02:37:33.994Z,64.00
2022-11-23T02:47:37.071Z,63.60
2022-11-23T02:57:40.136Z,59.60
2022-11-23T03:07:46.226Z,59.30
2022-11-23T03:17:49.740Z,69.10
2022-11-23T03:27:53.126Z,62.20
2022-11-23T03:37:57.157Z,56.30
2022-11-23T03:48:01.050Z,53.70
2022-11-23T03:58:04.726Z,57.30
2022-11-23T04:08:10.720Z,49.90
2022-11-23T04:18:13.976Z,49.40
2022-11-23T04:28:17.506Z,44.10
2022-11-23T04:38:22.617Z,57.40
2022-11-23T04:48:26.001Z,51.10
2022-11-23T04:58:33.158Z,44.10
2022-11-23T05:08:38.350Z,35.60
2022-11-23T05:19:00.125Z,44.80
2022-11-23T05:29:03.800Z,43.30
2022-11-23T05:39:07.770Z,39.60
2022-11-23T05:49:12.551Z,42.70
2022-11-23T05:59:16.645Z,43.60
2022-11-23T06:09:23.735Z,38.60
2022-11-23T06:19:30.940Z,41.60
2022-11-23T06:29:35.020Z,39.30
2022-11-23T06:39:38.785Z,41.40
2022-11-23T06:49:42.513Z,36.70
2022-11-23T06:59:59.365Z,36.60
2022-11-23T07:10:08.643Z,35.50
2022-11-23T07:20:34.680Z,35.00
2022-11-23T07:30:38.117Z,36.90
2022-11-23T07:40:41.529Z,35.20
2022-11-23T07:50:54.825Z,33.00
2022-11-23T08:00:57.978Z,29.00
2022-11-23T08:11:01.057Z,35.40
2022-11-23T08:21:04.574Z,30.00
2022-11-23T08:31:11.960Z,31.60
2022-11-23T08:41:15.508Z,31.90
2022-11-23T08:51:22.868Z,31.30
2022-11-23T09:01:26.270Z,29.40
2022-11-23T09:11:29.417Z,26.40
2022-11-23T09:21:34.496Z,41.00
2022-11-23T09:31:37.864Z,29.00
2022-11-23T09:41:49.755Z,27.90
2022-11-23T09:51:57.080Z,22.10
2022-11-23T10:02:01.349Z,29.00
2022-11-23T10:12:39.841Z,30.70
2022-11-23T10:22:59.565Z,25.00
2022-11-23T10:33:24.849Z,28.00
2022-11-23T10:44:00.195Z,25.30
2022-11-23T10:54:07.532Z,26.50
2022-11-23T11:04:23.033Z,23.80
2022-11-23T11:14:26.464Z,27.50
2022-11-23T11:24:47.410Z,29.10
2022-11-23T11:35:00.975Z,28.90
2022-11-23T11:45:08.095Z,30.70
2022-11-23T11:55:21.548Z,31.00
2022-11-23T12:05:49.761Z,31.00
2022-11-23T12:16:22.148Z,31.00
2022-11-23T12:26:46.681Z,32.40
2022-11-23T12:37:18.703Z,39.10
2022-11-23T12:47:43.189Z,32.80
2022-11-23T12:58:05.895Z,38.20
2022-11-23T13:08:35.689Z,47.30
2022-11-23T13:18:45.937Z,42.70
2022-11-23T13:28:53.564Z,48.00
2022-11-23T13:38:58.267Z,46.40
2022-11-23T13:49:01.812Z,45.30
2022-11-23T13:59:23.447Z,49.10
2022-11-23T14:09:43.209Z,50.30
2022-11-23T14:20:09.176Z,51.40
2022-11-23T14:30:21.439Z,49.70
2022-11-23T14:40:29.425Z,57.90
2022-11-23T14:50:34.091Z,53.70
2022-11-23T15:20:48.770Z,61.80
2022-11-23T15:30:57.970Z,59.80
2022-11-23T15:41:05.391Z,50.50
2022-11-23T15:51:21.532Z,50.00
2022-11-23T16:01:25.348Z,56.30
2022-11-23T16:11:35.506Z,73.10
2022-11-23T16:21:45.238Z,64.10
2022-11-23T16:31:55.203Z,58.30
2022-11-23T16:41:58.338Z,65.90
2022-11-23T16:52:01.434Z,83.50
2022-11-23T17:02:04.604Z,72.30
2022-11-23T17:12:14.820Z,65.20
2022-11-23T17:22:20.396Z,65.80
2022-11-23T17:32:23.621Z,77.60
2022-11-23T17:42:26.895Z,69.20
2022-11-23T17:52:30.011Z,59.00
2022-11-23T18:02:33.132Z,58.80
2022-11-23T18:12:37.346Z,68.40
2022-11-23T18:22:40.580Z,71.20
2022-11-23T18:32:43.741Z,64.00
2022-11-23T18:42:46.939Z,58.20
2022-11-23T18:52:50.197Z,68.70
2022-11-23T19:03:02.669Z,60.60
2022-11-23T19:13:06.294Z,53.90
2022-11-23T19:23:09.444Z,58.20
2022-11-23T19:33:12.584Z,69.20
2022-11-23T19:43:15.679Z,77.50
2022-11-23T19:53:18.840Z,70.30
2022-11-23T20:03:21.980Z,60.30
2022-11-23T20:13:26.390Z,79.50
2022-11-23T20:23:30.165Z,68.30
2022-11-23T20:33:34.059Z,62.70
2022-11-23T20:43:37.141Z,58.80
2022-11-23T20:53:41.822Z,76.10
2022-11-23T21:14:40.934Z,68.60
2022-11-23T21:24:44.202Z,62.90
2022-11-23T21:34:47.345Z,78.60
2022-11-23T21:44:50.401Z,65.30
2022-11-23T21:54:53.568Z,60.00
2022-11-23T22:04:56.923Z,63.00
2022-11-23T22:15:00.261Z,70.50
2022-11-23T22:25:03.811Z,64.40
2022-11-23T22:35:07.506Z,61.60
2022-11-23T22:45:11.357Z,59.80
2022-11-23T22:55:14.748Z,53.60
2022-11-23T23:05:19.574Z,63.70
2022-11-23T23:15:24.394Z,61.30
2022-11-23T23:25:27.729Z,48.40
2022-11-23T23:35:30.977Z,49.20
2022-11-23T23:45:34.422Z,59.00
2022-11-23T23:55:37.777Z,53.80
